LPPT/LIS METAR and TAF weather

Enter ICAO airport designator
Station Type Date Time Source
LPPT METAR 2022/01/19 20:00 UTC NOAA

LPPT 192000Z 31005KT CAVOK 10/05 Q1029


Station Type Date Time Source
LPPT Decoded METAR 2022/01/19 20:00 UTC NOAA

Lisboa / Portela, Portugal (LPPT) 38-46N 009-08W 123M
Jan 19, 2022 - 03:00 PM EST / 2022.01.19 2000 UTC
Wind: from the NW (310 degrees) at 6 MPH (5 KT):0
Visibility: greater than 7 mile(s):0
Temperature: 50 F (10 C)
Dew Point: 41 F (5 C)
Relative Humidity: 71%
Pressure (altimeter): 30.39 in. Hg (1029 hPa)
ob: LPPT 192000Z 31005KT CAVOK 10/05 Q1029
cycle: 20

Station Type Date Time Source
LPPT TAF 2022/01/19 18:18 UTC NOAA

TAF LPPT 191700Z 1918/2024 05007KT CAVOK PROB40 1918/1924 35005KT

Example: see airport list